Terminal Aerodrome Forecast
Issued by NWS

Home | Current Version | Previous Version | Text Only | Print | Product List | Glossary On
Versions: 1 2 3 4 5 6 7 8 9 10 11 12 13 14 15 16
988
FTAK31 PAJN 052327
TAFAWG
TAF
PAWG 052327Z 0600/0624 28006KT P6SM FEW010 BKN030 BKN040
     FM060600 15005KT P6SM VCSH SCT030 OVC050
     FM060900 13008KT P6SM -SHRA BKN030 OVC050
     FM061600 13010KT P6SM VCSH SCT030 OVC050
      AMD LTD TO CLD VIS AND WIND 0606/0615=

USA.gov is the U.S. government's official web portal to all federal, state and local government web resources and services.